Terminal Aerodrome Forecast
Issued by NWS

Home | Current Version | Previous Version | Text Only | Print | Product List | Glossary On
Versions: 1 2 3 4 5 6 7 8 9 10 11 12
000
FTUS45 KBOI 271736
TAFJER
TAF
KJER 271736Z 2718/2818 25015KT 5SM -SN BR OVC035
      TEMPO 2718/2719 2SM -SN OVC015
     FM280000 VRB06KT P6SM SCT030 BKN060
     FM280900 22010KT P6SM -SHSN SCT030 BKN050
      AMD NOT SKED=

USA.gov is the U.S. government's official web portal to all federal, state and local government web resources and services.